Time;durP1;ratioP1;P1;durP2;ratioP2;P2;SDS_P1;SDS_P2;PMS_P1;PMS_P2;Temp;Humidity;BMP_temperature;BMP_pressure;BME280_temperature;BME280_humidity;BME280_pressure;Samples;Min_cycle;Max_cycle;Signal;HPM_P1;HPM_P2
2020/09/16 00:01:47;;;;;;;1.8;1.6;;;;;;;18.29;80.70605;942.4529;;;;
2020/09/16 00:04:13;;;;;;;6.7;2;;;;;;;18.25;80.80371;942.4792;;;;
2020/09/16 00:06:39;;;;;;;3.5;2.4;;;;;;;18.15;81.29492;942.4399;;;;
2020/09/16 00:09:04;;;;;;;3.3;2.1;;;;;;;18.01;82.10645;942.4302;;;;
2020/09/16 00:11:29;;;;;;;5.7;2.4;;;;;;;17.89;82.63965;942.4091;;;;
2020/09/16 00:13:54;;;;;;;2.6;2.1;;;;;;;17.65;84.24414;942.4072;;;;
2020/09/16 00:16:19;;;;;;;3.7;2.2;;;;;;;17.72;83.91895;942.4116;;;;
2020/09/16 00:18:44;;;;;;;3.8;2.3;;;;;;;17.84;82.88672;942.3855;;;;
2020/09/16 00:21:09;;;;;;;2.8;2;;;;;;;17.86;82.58984;942.3489;;;;
2020/09/16 00:23:34;;;;;;;2.8;2.1;;;;;;;17.76;83.20996;942.4216;;;;
2020/09/16 00:26:00;;;;;;;2.5;2.1;;;;;;;17.81;82.84668;942.4363;;;;
2020/09/16 00:28:25;;;;;;;5.6;2.2;;;;;;;17.59;83.79102;942.4849;;;;
2020/09/16 00:30:50;;;;;;;5.9;2.5;;;;;;;17.54;84.01465;942.4781;;;;
2020/09/16 00:33:15;;;;;;;3.5;2.6;;;;;;;17.36;85.29004;942.4217;;;;
2020/09/16 00:35:40;;;;;;;3.1;2.3;;;;;;;17.52;84.16113;942.4341;;;;
2020/09/16 00:38:05;;;;;;;2.9;2.4;;;;;;;17.59;83.53516;942.3753;;;;
2020/09/16 00:40:31;;;;;;;3.6;2.5;;;;;;;17.46;84.19629;942.4178;;;;
2020/09/16 00:42:56;;;;;;;5.2;2.3;;;;;;;17.48;84.01367;942.412;;;;
2020/09/16 00:45:24;;;;;;;3.8;2.6;;;;;;;17.5;83.96094;942.3602;;;;
2020/09/16 00:47:49;;;;;;;3.8;2.1;;;;;;;17.55;83.74902;942.3781;;;;
2020/09/16 00:50:14;;;;;;;3.1;2.2;;;;;;;17.55;83.83984;942.3734;;;;
2020/09/16 00:52:39;;;;;;;3.5;2.2;;;;;;;17.57;83.85742;942.2668;;;;
2020/09/16 00:55:05;;;;;;;5;2.4;;;;;;;17.58;83.16406;942.3102;;;;
2020/09/16 00:57:30;;;;;;;2.7;1.9;;;;;;;17.56;82.62695;942.3193;;;;
2020/09/16 00:59:55;;;;;;;3.6;2;;;;;;;17.6;82.26074;942.2819;;;;
2020/09/16 01:02:20;;;;;;;4;2;;;;;;;17.65;82.13184;942.3444;;;;
2020/09/16 01:04:45;;;;;;;3.1;1.8;;;;;;;17.68;81.60449;942.3516;;;;
2020/09/16 01:07:10;;;;;;;5.2;2.9;;;;;;;17.74;81.38281;942.276;;;;
2020/09/16 01:09:35;;;;;;;3;2.1;;;;;;;17.76;81.22363;942.2894;;;;
2020/09/16 01:12:01;;;;;;;2.7;1.9;;;;;;;17.78;81.18164;942.2449;;;;
2020/09/16 01:14:26;;;;;;;3.7;2.1;;;;;;;17.73;81.32227;942.2125;;;;
2020/09/16 01:16:51;;;;;;;3.5;1.9;;;;;;;17.59;81.71387;942.2296;;;;
2020/09/16 01:19:16;;;;;;;3.6;2.2;;;;;;;17.52;81.94434;942.2143;;;;
2020/09/16 01:21:41;;;;;;;3.4;2.3;;;;;;;17.47;81.94727;942.2285;;;;
2020/09/16 01:24:06;;;;;;;3.8;2.1;;;;;;;17.39;82.22168;942.2025;;;;
2020/09/16 01:26:32;;;;;;;6.1;2.3;;;;;;;17.38;82.13867;942.2211;;;;
2020/09/16 01:28:57;;;;;;;3.1;2.1;;;;;;;17.33;82.4668;942.1878;;;;
2020/09/16 01:31:22;;;;;;;7;2.7;;;;;;;17.34;82.39941;942.0814;;;;
2020/09/16 01:33:47;;;;;;;5.4;2;;;;;;;17.3;82.6123;942.0891;;;;
2020/09/16 01:36:12;;;;;;;3.5;1.7;;;;;;;17.23;82.98145;942.1776;;;;
2020/09/16 01:38:37;;;;;;;2.8;2.1;;;;;;;17.02;84.28711;942.192;;;;
2020/09/16 01:41:03;;;;;;;5.5;2.6;;;;;;;;;;;;;
2020/09/16 01:43:28;;;;;;;4.3;2.2;;;;;;;;;;;;;
2020/09/16 01:45:53;;;;;;;4.5;2.7;;;;;;;;;;;;;
2020/09/16 01:48:18;;;;;;;3.1;2.5;;;;;;;;;;;;;
2020/09/16 01:50:43;;;;;;;3.2;2.2;;;;;;;;;;;;;
2020/09/16 01:53:09;;;;;;;6.6;2.3;;;;;;;;;;;;;
2020/09/16 01:55:34;;;;;;;4.3;2.5;;;;;;;;;;;;;
2020/09/16 01:57:59;;;;;;;6.4;2.4;;;;;;;;;;;;;
2020/09/16 02:00:24;;;;;;;15.7;2.7;;;;;;;;;;;;;
2020/09/16 02:02:49;;;;;;;4;2.5;;;;;;;;;;;;;
2020/09/16 02:05:15;;;;;;;3.5;2.3;;;;;;;;;;;;;
2020/09/16 02:07:40;;;;;;;3.2;2.1;;;;;;;;;;;;;
2020/09/16 02:10:05;;;;;;;2.7;2.1;;;;;;;;;;;;;
2020/09/16 02:12:30;;;;;;;3.2;1.8;;;;;;;;;;;;;
2020/09/16 02:14:55;;;;;;;3.1;2.1;;;;;;;;;;;;;
2020/09/16 02:17:20;;;;;;;4.5;1.9;;;;;;;;;;;;;
2020/09/16 02:19:45;;;;;;;2.8;1.9;;;;;;;;;;;;;
2020/09/16 02:22:11;;;;;;;3.3;2.2;;;;;;;;;;;;;
2020/09/16 02:24:36;;;;;;;3.3;2.1;;;;;;;;;;;;;
2020/09/16 02:27:01;;;;;;;3.5;2.1;;;;;;;;;;;;;
2020/09/16 02:29:26;;;;;;;6.5;2.4;;;;;;;;;;;;;
2020/09/16 02:31:51;;;;;;;3.5;2.1;;;;;;;;;;;;;
2020/09/16 02:34:16;;;;;;;2.5;1.8;;;;;;;;;;;;;
2020/09/16 02:36:42;;;;;;;2.8;2;;;;;;;;;;;;;
2020/09/16 02:39:07;;;;;;;2.6;2.2;;;;;;;;;;;;;
2020/09/16 02:41:32;;;;;;;7.1;2.9;;;;;;;;;;;;;
2020/09/16 02:43:57;;;;;;;4.3;1.7;;;;;;;;;;;;;
2020/09/16 02:46:23;;;;;;;3.9;2.1;;;;;;;;;;;;;
2020/09/16 02:48:47;;;;;;;4.4;2.7;;;;;;;;;;;;;
2020/09/16 02:51:12;;;;;;;2.6;2;;;;;;;;;;;;;
2020/09/16 02:53:38;;;;;;;4.1;2.3;;;;;;;;;;;;;
2020/09/16 02:56:02;;;;;;;2.7;1.8;;;;;;;;;;;;;
2020/09/16 02:58:28;;;;;;;3.1;1.9;;;;;;;;;;;;;
2020/09/16 03:00:53;;;;;;;3.3;2.2;;;;;;;;;;;;;
2020/09/16 03:03:22;;;;;;;2.9;2.3;;;;;;;;;;;;;
2020/09/16 03:05:45;;;;;;;3.2;2.2;;;;;;;;;;;;;
2020/09/16 03:08:16;;;;;;;2.7;1.9;;;;;;;;;;;;;
2020/09/16 03:10:39;;;;;;;4;2;;;;;;;;;;;;;
2020/09/16 03:13:04;;;;;;;3;2.2;;;;;;;;;;;;;
2020/09/16 03:15:29;;;;;;;2.5;1.6;;;;;;;;;;;;;
2020/09/16 03:17:54;;;;;;;3.9;1.9;;;;;;;;;;;;;
2020/09/16 03:20:22;;;;;;;2.7;1.9;;;;;;;;;;;;;
2020/09/16 03:22:47;;;;;;;4.6;1.8;;;;;;;;;;;;;
2020/09/16 03:25:12;;;;;;;5.2;2.4;;;;;;;;;;;;;
2020/09/16 03:27:37;;;;;;;2.3;1.8;;;;;;;;;;;;;
2020/09/16 03:30:02;;;;;;;4.6;2.2;;;;;;;;;;;;;
2020/09/16 03:32:28;;;;;;;2.7;2;;;;;;;;;;;;;
2020/09/16 03:34:53;;;;;;;9;2.2;;;;;;;;;;;;;
2020/09/16 03:37:18;;;;;;;2.3;2;;;;;;;;;;;;;
2020/09/16 03:39:43;;;;;;;2.7;1.9;;;;;;;;;;;;;
2020/09/16 03:42:08;;;;;;;4.1;2.4;;;;;;;;;;;;;
2020/09/16 03:44:33;;;;;;;3.7;2.1;;;;;;;;;;;;;
2020/09/16 03:46:58;;;;;;;2.5;1.5;;;;;;;;;;;;;
2020/09/16 03:49:23;;;;;;;4.1;1.9;;;;;;;;;;;;;
2020/09/16 03:51:49;;;;;;;2.7;1.8;;;;;;;;;;;;;
2020/09/16 03:54:14;;;;;;;3.8;1.9;;;;;;;;;;;;;
2020/09/16 03:56:39;;;;;;;4.1;2.7;;;;;;;;;;;;;
2020/09/16 03:59:04;;;;;;;2.4;1.7;;;;;;;;;;;;;
2020/09/16 04:02:33;;;;;;;4.4;2.3;;;;;;;16.33;83.4707;941.9364;;;;
2020/09/16 04:04:58;;;;;;;5.5;2.2;;;;;;;16.29;83.53125;941.8731;;;;
2020/09/16 04:07:23;;;;;;;8.4;2.2;;;;;;;16.21;84.08301;941.9039;;;;
2020/09/16 04:09:49;;;;;;;7.1;2.7;;;;;;;16.03;85.11328;941.95;;;;
2020/09/16 04:12:14;;;;;;;3.3;2.2;;;;;;;15.95;85.98828;941.9052;;;;
2020/09/16 04:14:39;;;;;;;3.9;2.4;;;;;;;15.97;85.66797;941.9114;;;;
2020/09/16 04:17:04;;;;;;;3.6;2.4;;;;;;;15.91;86.08496;941.9174;;;;
2020/09/16 04:19:29;;;;;;;4.8;2.6;;;;;;;16.07;85.33887;941.9715;;;;
2020/09/16 04:21:54;;;;;;;3.5;1.9;;;;;;;16.16;84.54785;941.8817;;;;
2020/09/16 04:24:20;;;;;;;4.1;2.4;;;;;;;16.08;85.03125;941.9183;;;;
2020/09/16 04:26:45;;;;;;;4.1;2;;;;;;;16.04;85.38086;941.868;;;;
2020/09/16 04:29:10;;;;;;;3.7;2;;;;;;;16.1;85.02148;941.8605;;;;
2020/09/16 04:31:35;;;;;;;7.6;3.1;;;;;;;16.17;84.50195;941.7885;;;;
2020/09/16 04:34:02;;;;;;;7.1;3.1;;;;;;;16.2;84.23145;941.8711;;;;
2020/09/16 04:36:25;;;;;;;8;3.1;;;;;;;16.11;84.50488;941.9102;;;;
2020/09/16 04:38:51;;;;;;;5.2;2.8;;;;;;;16.12;84.41211;941.9327;;;;
2020/09/16 04:41:17;;;;;;;5;2.5;;;;;;;16.11;84.21582;941.8748;;;;
2020/09/16 04:43:42;;;;;;;3.8;2.1;;;;;;;16.13;84.00098;941.8562;;;;
2020/09/16 04:46:09;;;;;;;2.7;2;;;;;;;16.09;84.24707;941.8372;;;;
2020/09/16 04:48:35;;;;;;;5.7;1.8;;;;;;;16;84.84082;941.8784;;;;
2020/09/16 04:51:02;;;;;;;2.7;2;;;;;;;16.06;84.50586;941.8719;;;;
2020/09/16 04:53:27;;;;;;;2.8;1.6;;;;;;;16.04;84.38672;941.9146;;;;
2020/09/16 04:55:52;;;;;;;3.2;2;;;;;;;16.04;84.51367;941.921;;;;
2020/09/16 04:58:18;;;;;;;4;2.5;;;;;;;15.97;85.19336;941.9581;;;;
2020/09/16 05:00:43;;;;;;;4.4;1.9;;;;;;;16.09;84.75391;941.9344;;;;
2020/09/16 05:03:12;;;;;;;2.8;1.6;;;;;;;16.18;84.37793;941.9122;;;;
2020/09/16 05:05:34;;;;;;;3.3;2.1;;;;;;;16.25;83.92969;941.8541;;;;
2020/09/16 05:07:59;;;;;;;3.7;1.8;;;;;;;16.31;83.69824;941.8979;;;;
2020/09/16 05:10:26;;;;;;;3.2;1.9;;;;;;;16.32;83.63086;941.8898;;;;
2020/09/16 05:12:51;;;;;;;4.3;2.2;;;;;;;16.23;84.22461;941.9153;;;;
2020/09/16 05:15:16;;;;;;;5.1;2.2;;;;;;;16.25;84.18359;941.9908;;;;
2020/09/16 05:17:42;;;;;;;4.5;2.4;;;;;;;16.2;84.5918;941.9995;;;;
2020/09/16 05:20:07;;;;;;;3.3;1.9;;;;;;;16.32;84.42871;941.9734;;;;
2020/09/16 05:22:32;;;;;;;7.4;2.4;;;;;;;16.51;83.52832;942.0142;;;;
2020/09/16 05:24:58;;;;;;;7.6;2.5;;;;;;;16.66;82.72363;941.9731;;;;
2020/09/16 05:27:23;;;;;;;3.9;2.3;;;;;;;16.68;82.86426;941.9765;;;;
2020/09/16 05:29:48;;;;;;;5.3;2.4;;;;;;;16.7;82.70703;942.0044;;;;
2020/09/16 05:32:38;;;;;;;7.9;2.5;;;;;;;16.69;82.44043;942.0222;;;;
2020/09/16 05:35:03;;;;;;;3.2;1.9;;;;;;;16.72;82.03906;941.9648;;;;
2020/09/16 05:37:30;;;;;;;4;2.1;;;;;;;16.81;81.70703;942.0679;;;;
2020/09/16 05:39:55;;;;;;;5;2.2;;;;;;;16.86;81.38281;942.0421;;;;
2020/09/16 05:42:18;;;;;;;2.7;1.8;;;;;;;16.88;81.4541;942.0539;;;;
2020/09/16 05:44:42;;;;;;;5.3;2.6;;;;;;;16.87;81.61621;942.0781;;;;
2020/09/16 05:47:09;;;;;;;4;2.3;;;;;;;16.87;81.77832;942.0588;;;;
2020/09/16 05:49:34;;;;;;;3.5;2;;;;;;;16.94;81.85938;942.0535;;;;
2020/09/16 05:52:00;;;;;;;5.9;2.5;;;;;;;17.02;81.6084;942.0366;;;;
2020/09/16 05:54:25;;;;;;;2.8;1.9;;;;;;;17.03;81.66797;942.0464;;;;
2020/09/16 05:56:50;;;;;;;9.7;2.8;;;;;;;17.14;81.29492;942.0558;;;;
2020/09/16 05:59:16;;;;;;;4.8;2.4;;;;;;;16.94;81.87305;942.0502;;;;
2020/09/16 06:01:41;;;;;;;4.1;2.3;;;;;;;16.98;82.12305;942.1046;;;;
2020/09/16 06:04:06;;;;;;;3.6;2.2;;;;;;;16.99;82.25391;942.0633;;;;
2020/09/16 06:06:31;;;;;;;5.1;2.4;;;;;;;17.02;81.6084;942.08;;;;
2020/09/16 06:08:56;;;;;;;4.9;2;;;;;;;17.12;81.41797;942.106;;;;
2020/09/16 06:11:22;;;;;;;4.9;2.4;;;;;;;17.29;80.66113;942.0627;;;;
2020/09/16 06:13:47;;;;;;;6.4;2.6;;;;;;;17.32;80.60938;942.1766;;;;
2020/09/16 06:16:14;;;;;;;3.1;2.3;;;;;;;17.31;80.43457;942.0898;;;;
2020/09/16 06:18:39;;;;;;;2.2;1.9;;;;;;;17.46;80.01953;942.0748;;;;
2020/09/16 06:21:04;;;;;;;4.3;2.1;;;;;;;18.01;77.90332;942.1384;;;;
2020/09/16 06:23:36;;;;;;;14.8;2.4;;;;;;;18.69;75.11328;942.0793;;;;
2020/09/16 06:26:01;;;;;;;4;1.8;;;;;;;19.43;72.4082;942.0808;;;;
2020/09/16 06:28:26;;;;;;;1.8;1.6;;;;;;;19.92;70.4834;942.0374;;;;
2020/09/16 06:30:59;;;;;;;5.2;2.2;;;;;;;20.35;69.62793;942.1339;;;;
2020/09/16 06:33:32;;;;;;;2.7;1.9;;;;;;;20.78;67.38184;942.1119;;;;
2020/09/16 06:35:57;;;;;;;3.4;1.5;;;;;;;21.18;66.47168;942.0874;;;;
2020/09/16 06:38:22;;;;;;;2.6;1.7;;;;;;;21.39;66.32715;942.0768;;;;
2020/09/16 06:40:47;;;;;;;3.6;2;;;;;;;21.21;65.11816;942.0437;;;;
2020/09/16 06:43:13;;;;;;;3.1;1.9;;;;;;;21.04;65.15332;942.1111;;;;
2020/09/16 06:45:38;;;;;;;3.5;2;;;;;;;21.02;65.71094;942.0928;;;;
2020/09/16 06:48:03;;;;;;;5.5;1.9;;;;;;;21.03;65.94531;942.0799;;;;
2020/09/16 06:50:28;;;;;;;5.3;1.8;;;;;;;20.75;65.74023;942.0812;;;;
2020/09/16 06:52:53;;;;;;;2;1.7;;;;;;;20.71;66.20215;942.0821;;;;
2020/09/16 06:55:18;;;;;;;3.2;2;;;;;;;20.85;65.89551;942.0394;;;;
2020/09/16 06:57:43;;;;;;;3.7;1.9;;;;;;;20.97;65.07227;941.9928;;;;
2020/09/16 07:00:09;;;;;;;4.5;1.9;;;;;;;20.7;66.42188;942.0184;;;;
2020/09/16 07:02:34;;;;;;;3.1;1.8;;;;;;;20.77;66.21191;941.9584;;;;
2020/09/16 07:04:59;;;;;;;2.1;1.7;;;;;;;20.76;66.49121;942.0234;;;;
2020/09/16 07:07:24;;;;;;;4.8;2;;;;;;;21.07;65.82422;941.9476;;;;
2020/09/16 07:09:49;;;;;;;1.9;1.4;;;;;;;21.5;64.58789;941.9788;;;;
2020/09/16 07:12:14;;;;;;;1.8;1.5;;;;;;;21.83;63.3125;941.9492;;;;
2020/09/16 07:14:39;;;;;;;1.8;1.5;;;;;;;22.39;61.03516;941.9928;;;;
2020/09/16 07:17:05;;;;;;;2.5;1.5;;;;;;;22.51;60.56934;941.9643;;;;
2020/09/16 07:19:30;;;;;;;2.2;1.8;;;;;;;22.57;60.64941;941.943;;;;
2020/09/16 07:21:55;;;;;;;2.5;1.4;;;;;;;22.73;59.74316;941.97;;;;
2020/09/16 07:24:20;;;;;;;2.1;1.4;;;;;;;22.54;60.84277;942.0002;;;;
2020/09/16 07:26:45;;;;;;;2;1.4;;;;;;;23.26;58.52148;941.9628;;;;
2020/09/16 07:29:10;;;;;;;2;1.3;;;;;;;23.77;56.7168;941.9639;;;;
2020/09/16 07:31:36;;;;;;;3.2;1.2;;;;;;;24.62;54.85645;941.9442;;;;
2020/09/16 07:34:01;;;;;;;3.2;1.8;;;;;;;25.47;51.13477;941.9306;;;;
2020/09/16 07:36:26;;;;;;;1.7;1.2;;;;;;;26.31;49.55957;941.9272;;;;
2020/09/16 07:38:51;;;;;;;3.2;1.6;;;;;;;27.7;46.31934;941.8945;;;;
2020/09/16 07:41:16;;;;;;;3.1;1.5;;;;;;;27.65;45.13965;941.8897;;;;
2020/09/16 07:43:41;;;;;;;1.7;0.8;;;;;;;29.42;42.70801;941.889;;;;
2020/09/16 07:46:07;;;;;;;1.3;0.8;;;;;;;29.25;42.6084;941.9023;;;;
2020/09/16 07:48:32;;;;;;;1.9;1.1;;;;;;;30.25;40.23047;941.8375;;;;
2020/09/16 07:50:57;;;;;;;2.4;1.1;;;;;;;31.86;38.44531;941.7891;;;;
2020/09/16 07:53:22;;;;;;;1.6;1.2;;;;;;;31.5;36.71484;941.7795;;;;
2020/09/16 07:55:47;;;;;;;1.3;1.1;;;;;;;31.99;36.44238;941.7084;;;;
2020/09/16 07:58:12;;;;;;;2.4;1.1;;;;;;;32.79;33.98633;941.7949;;;;
2020/09/16 08:00:37;;;;;;;2.8;1.1;;;;;;;32.91;34.42773;941.7897;;;;
2020/09/16 08:03:03;;;;;;;3;1.3;;;;;;;34.21;33.92383;941.7935;;;;
2020/09/16 08:05:28;;;;;;;1.4;0.7;;;;;;;35.85;30.91504;941.7765;;;;
2020/09/16 08:07:53;;;;;;;1.1;1;;;;;;;34.43;32.10938;941.7186;;;;
2020/09/16 08:10:18;;;;;;;1.2;1;;;;;;;34.44;31.12109;941.7133;;;;
2020/09/16 08:12:43;;;;;;;1.1;0.7;;;;;;;35.45;30.10352;941.7033;;;;
2020/09/16 08:15:16;;;;;;;1;0.9;;;;;;;36.43;29.06738;941.6881;;;;
2020/09/16 08:17:45;;;;;;;2;1;;;;;;;37.32;27.87402;941.7213;;;;
2020/09/16 08:20:10;;;;;;;2.6;0.8;;;;;;;35.41;29.7627;941.6666;;;;
2020/09/16 08:22:35;;;;;;;2.5;0.9;;;;;;;36.56;28.91797;941.6567;;;;
2020/09/16 08:25:00;;;;;;;0.8;0.8;;;;;;;36.85;28.16113;941.6122;;;;
2020/09/16 08:27:25;;;;;;;1.4;0.9;;;;;;;37.79;27.35645;941.6394;;;;
2020/09/16 08:29:50;;;;;;;2.3;0.7;;;;;;;36.9;28.63672;941.6193;;;;
2020/09/16 08:32:16;;;;;;;1.2;1;;;;;;;36.5;28.5752;941.5892;;;;
2020/09/16 08:34:41;;;;;;;1.1;0.9;;;;;;;35.86;29.88867;941.5833;;;;
2020/09/16 08:37:06;;;;;;;1.6;1.1;;;;;;;35.14;31.09668;941.6038;;;;
2020/09/16 08:39:31;;;;;;;1.5;1.1;;;;;;;34.49;33.125;941.6003;;;;
2020/09/16 08:41:56;;;;;;;1.1;1;;;;;;;34.42;33.03613;941.5689;;;;
2020/09/16 08:44:22;;;;;;;2.3;1.1;;;;;;;34.72;32.85254;941.5817;;;;
2020/09/16 08:46:47;;;;;;;1;0.9;;;;;;;35.04;31.06641;941.6033;;;;
2020/09/16 08:49:12;;;;;;;2.1;1;;;;;;;35.39;31.05371;941.5364;;;;
2020/09/16 08:51:37;;;;;;;1.2;0.8;;;;;;;34.72;31.46582;941.5619;;;;
2020/09/16 08:54:02;;;;;;;1;0.9;;;;;;;34.25;33.25195;941.5302;;;;
2020/09/16 08:56:28;;;;;;;1.6;0.9;;;;;;;33.71;34.80176;941.5624;;;;
2020/09/16 08:58:59;;;;;;;1.3;1;;;;;;;33.88;35.11426;941.5661;;;;
2020/09/16 09:01:24;;;;;;;2;1.1;;;;;;;34.17;33.9209;941.5098;;;;
2020/09/16 09:03:50;;;;;;;1.7;1.2;;;;;;;33.81;34.00293;941.4941;;;;
2020/09/16 09:06:16;;;;;;;1;0.8;;;;;;;34.22;32.51563;941.4817;;;;
2020/09/16 09:08:41;;;;;;;1.8;1.4;;;;;;;34.48;32.83594;941.4489;;;;
2020/09/16 09:11:07;;;;;;;2.2;0.8;;;;;;;34.97;31.98926;941.4116;;;;
2020/09/16 09:13:32;;;;;;;1;0.8;;;;;;;34.24;32.9502;941.3885;;;;
2020/09/16 09:15:57;;;;;;;3;1;;;;;;;34.68;32.75293;941.3702;;;;
2020/09/16 09:18:22;;;;;;;2.4;0.8;;;;;;;35.08;31.51563;941.3621;;;;
2020/09/16 09:20:48;;;;;;;2;1.3;;;;;;;34.86;31.34375;941.3139;;;;
2020/09/16 09:23:13;;;;;;;2.8;1.2;;;;;;;34.46;34.19531;941.3314;;;;
2020/09/16 09:25:38;;;;;;;1;0.8;;;;;;;34.77;32.83301;941.3098;;;;
2020/09/16 09:28:03;;;;;;;1.4;0.9;;;;;;;34.76;32.86816;941.2868;;;;
2020/09/16 09:30:30;;;;;;;3.2;0.7;;;;;;;34.29;32.7627;941.2455;;;;
2020/09/16 09:32:54;;;;;;;1.1;0.9;;;;;;;34.24;33.63672;941.2838;;;;
2020/09/16 09:35:20;;;;;;;2.5;1.1;;;;;;;33.34;33.8584;941.2842;;;;
2020/09/16 09:37:45;;;;;;;1.2;1;;;;;;;33.01;35.56445;941.2303;;;;
2020/09/16 09:40:10;;;;;;;1.7;1;;;;;;;32.77;34.04492;941.1973;;;;
2020/09/16 09:42:35;;;;;;;1.4;1.1;;;;;;;32.53;35.59863;941.1383;;;;
2020/09/16 09:45:00;;;;;;;2.3;1.1;;;;;;;32.65;35.65625;941.1215;;;;
2020/09/16 09:47:25;;;;;;;1.1;0.9;;;;;;;32.35;36.56934;941.0859;;;;
2020/09/16 09:49:51;;;;;;;1.9;1.3;;;;;;;32.42;36.28613;941.0631;;;;
2020/09/16 09:52:16;;;;;;;0.9;0.8;;;;;;;32.49;36.80762;941.0973;;;;
2020/09/16 09:54:41;;;;;;;1.6;1.1;;;;;;;32.58;37.04199;941.0695;;;;
2020/09/16 09:57:06;;;;;;;1.5;0.9;;;;;;;32.94;34.98242;941.0295;;;;
2020/09/16 09:59:31;;;;;;;1.8;1;;;;;;;33.19;35.91504;940.98;;;;
2020/09/16 10:01:58;;;;;;;3.2;1.4;;;;;;;32.96;37.81738;940.9789;;;;
2020/09/16 10:04:23;;;;;;;1.1;0.7;;;;;;;32.44;39.66992;941.0119;;;;
2020/09/16 10:06:48;;;;;;;1;0.8;;;;;;;31.99;40.18262;940.993;;;;
2020/09/16 10:09:14;;;;;;;1;0.9;;;;;;;32.06;37.54004;940.9473;;;;
2020/09/16 10:11:39;;;;;;;1.2;1;;;;;;;32.16;37.11621;940.9046;;;;
2020/09/16 10:14:04;;;;;;;1.5;0.9;;;;;;;32.08;37.97266;940.8836;;;;
2020/09/16 10:16:29;;;;;;;3;1;;;;;;;32.3;37.43945;940.8477;;;;
2020/09/16 10:18:54;;;;;;;1.3;0.7;;;;;;;32.65;36.71191;940.8734;;;;
2020/09/16 10:21:19;;;;;;;0.8;0.8;;;;;;;32.84;37.18359;940.7929;;;;
2020/09/16 10:23:44;;;;;;;1.6;1;;;;;;;32.92;37.28613;940.7988;;;;
2020/09/16 10:26:09;;;;;;;1.2;0.8;;;;;;;32.92;38.41504;940.7667;;;;
2020/09/16 10:28:34;;;;;;;1.4;1.1;;;;;;;32.64;36.62695;940.7292;;;;
2020/09/16 10:31:00;;;;;;;2.2;1.2;;;;;;;32.27;37.80859;940.7268;;;;
2020/09/16 10:33:25;;;;;;;1.8;1.2;;;;;;;32.45;37.27246;940.7008;;;;
2020/09/16 10:35:50;;;;;;;11.9;6;;;;;;;32.73;38.00195;940.7001;;;;
2020/09/16 10:38:15;;;;;;;13;6.4;;;;;;;33.25;36.26855;940.627;;;;
2020/09/16 10:40:42;;;;;;;3.2;1.9;;;;;;;33.41;37.21777;940.6479;;;;
2020/09/16 10:43:07;;;;;;;8.2;4;;;;;;;33.7;35.91895;940.6461;;;;
2020/09/16 10:45:32;;;;;;;7.2;4.2;;;;;;;33.97;35.41016;940.5645;;;;
2020/09/16 10:47:57;;;;;;;4.6;2.5;;;;;;;34.02;34.30664;940.5188;;;;
2020/09/16 10:50:22;;;;;;;3.7;1.8;;;;;;;33.7;34.95605;940.5398;;;;
2020/09/16 10:52:48;;;;;;;6.2;3.7;;;;;;;33.45;35.79004;940.6027;;;;
2020/09/16 10:55:13;;;;;;;7.6;3.7;;;;;;;33.81;35.98828;940.5637;;;;
2020/09/16 10:57:38;;;;;;;4.7;3;;;;;;;33.39;36.1709;940.5714;;;;
2020/09/16 11:00:03;;;;;;;5.4;2.7;;;;;;;32.82;36.28223;940.5387;;;;
2020/09/16 11:02:28;;;;;;;3;1.8;;;;;;;32.84;36.30762;940.5189;;;;
2020/09/16 11:04:53;;;;;;;2.4;1.7;;;;;;;32.45;37.35547;940.4752;;;;
2020/09/16 11:07:19;;;;;;;4.2;1.7;;;;;;;32.7;36.81152;940.4203;;;;
2020/09/16 11:09:44;;;;;;;3;1.6;;;;;;;32.8;35.57227;940.4094;;;;
2020/09/16 11:12:09;;;;;;;4.2;1.6;;;;;;;33;35.98438;940.4366;;;;
2020/09/16 11:14:34;;;;;;;1.9;1.5;;;;;;;33.2;35.44727;940.3964;;;;
2020/09/16 11:16:59;;;;;;;3.4;1.5;;;;;;;33.57;34.74219;940.3907;;;;
2020/09/16 11:19:25;;;;;;;3;1.5;;;;;;;33.68;33.60742;940.3645;;;;
2020/09/16 11:21:50;;;;;;;1.3;1;;;;;;;33.71;33.0332;940.3789;;;;
2020/09/16 11:24:15;;;;;;;2.6;1.4;;;;;;;33.82;34.74902;940.3908;;;;
2020/09/16 11:26:40;;;;;;;1.8;1.4;;;;;;;33.35;33.52344;940.3683;;;;
2020/09/16 11:29:05;;;;;;;1.9;1.2;;;;;;;33.06;34.89551;940.3748;;;;
2020/09/16 11:31:30;;;;;;;1;0.8;;;;;;;33.05;34.60645;940.3297;;;;
2020/09/16 11:34:00;;;;;;;1.3;0.9;;;;;;;32.97;35.11719;940.4001;;;;
2020/09/16 11:36:25;;;;;;;1.6;0.9;;;;;;;32.97;34.79297;940.3301;;;;
2020/09/16 11:38:50;;;;;;;4.2;1.2;;;;;;;32.93;34.95703;940.2742;;;;
2020/09/16 11:41:15;;;;;;;2.5;0.8;;;;;;;32.79;35.63086;940.2915;;;;
2020/09/16 11:43:43;;;;;;;1.4;0.9;;;;;;;32.62;34.30957;940.3013;;;;
2020/09/16 11:46:08;;;;;;;2.4;0.9;;;;;;;32.46;34.2627;940.3058;;;;
2020/09/16 11:48:35;;;;;;;1.5;1.1;;;;;;;31.99;34.08203;940.2778;;;;
2020/09/16 11:51:01;;;;;;;1.2;0.8;;;;;;;32.03;34.34961;940.1902;;;;
2020/09/16 11:53:25;;;;;;;1.5;1.1;;;;;;;31.87;34.94824;940.2047;;;;
2020/09/16 11:55:51;;;;;;;1.5;0.9;;;;;;;32.07;34.61621;940.2299;;;;
2020/09/16 11:58:16;;;;;;;1.5;0.9;;;;;;;32.16;36.2168;940.1431;;;;
2020/09/16 12:00:41;;;;;;;1.1;0.7;;;;;;;32.2;34.0498;940.1511;;;;
2020/09/16 12:03:06;;;;;;;1.4;0.9;;;;;;;32.15;33.0625;940.0914;;;;
2020/09/16 12:05:36;;;;;;;1.5;1.1;;;;;;;31.97;33.88965;940.1628;;;;
2020/09/16 12:08:01;;;;;;;1.8;1;;;;;;;31.72;33.54785;940.0731;;;;
2020/09/16 12:10:27;;;;;;;3.7;1.2;;;;;;;31.67;33.36328;940.0893;;;;
2020/09/16 12:12:53;;;;;;;1.1;0.8;;;;;;;31.52;36.26172;940.0851;;;;
2020/09/16 12:15:29;;;;;;;1.5;0.9;;;;;;;31.53;36.13086;940.0943;;;;
2020/09/16 12:17:56;;;;;;;6.6;1.2;;;;;;;31.56;35.30762;940.0631;;;;
2020/09/16 12:20:24;;;;;;;2.1;1;;;;;;;31.63;35.2168;940.0497;;;;
2020/09/16 12:22:49;;;;;;;1;0.7;;;;;;;31.06;35.05273;940.0304;;;;
2020/09/16 12:25:20;;;;;;;1.5;0.8;;;;;;;30.97;36.39746;940.0086;;;;
2020/09/16 12:27:45;;;;;;;1.4;0.9;;;;;;;30.43;35.88867;939.9843;;;;
2020/09/16 12:30:16;;;;;;;1.2;0.9;;;;;;;30.25;35.87305;939.97;;;;
2020/09/16 12:32:42;;;;;;;1;0.8;;;;;;;30.5;33.31348;940.0172;;;;
2020/09/16 12:35:07;;;;;;;3.5;1.4;;;;;;;30.84;33.11133;939.9543;;;;
2020/09/16 12:37:32;;;;;;;1.8;0.9;;;;;;;30.87;33.31641;939.9269;;;;
2020/09/16 12:39:57;;;;;;;1.5;1;;;;;;;30.91;35.45996;939.9094;;;;
2020/09/16 12:42:24;;;;;;;2.4;1.3;;;;;;;30.64;35.56934;939.9183;;;;
2020/09/16 12:44:50;;;;;;;1.8;1.2;;;;;;;30.44;34.0498;939.8515;;;;
2020/09/16 12:47:17;;;;;;;1.7;0.9;;;;;;;30.25;36.95996;939.8917;;;;
2020/09/16 12:49:43;;;;;;;1.2;0.8;;;;;;;29.94;34.0957;939.8992;;;;
2020/09/16 12:52:08;;;;;;;1.7;1.2;;;;;;;29.59;36.39453;939.8005;;;;
2020/09/16 12:54:33;;;;;;;1.9;1.3;;;;;;;29.78;37.98242;939.8967;;;;
2020/09/16 12:56:59;;;;;;;1.6;0.9;;;;;;;29.7;37.37988;939.8279;;;;
2020/09/16 12:59:24;;;;;;;1.1;0.8;;;;;;;29.8;36.70898;939.8058;;;;
2020/09/16 13:01:49;;;;;;;1.2;1.1;;;;;;;29.92;38.41211;939.8364;;;;
2020/09/16 13:04:19;;;;;;;2;1.1;;;;;;;29.71;35.88965;939.7708;;;;
2020/09/16 13:06:44;;;;;;;2.3;1;;;;;;;29.8;35.46875;939.8074;;;;
2020/09/16 13:09:10;;;;;;;1.2;0.8;;;;;;;29.93;34.05859;939.7464;;;;
2020/09/16 13:11:38;;;;;;;2.8;1.6;;;;;;;29.9;35.54688;939.7901;;;;
2020/09/16 13:14:03;;;;;;;4.4;2;;;;;;;29.85;36.92773;939.7506;;;;
2020/09/16 13:16:29;;;;;;;2.8;1.4;;;;;;;29.62;39.54297;939.7194;;;;
2020/09/16 13:18:53;;;;;;;3.5;1.7;;;;;;;29.76;41.08301;939.7548;;;;
2020/09/16 13:21:18;;;;;;;3.1;1.6;;;;;;;29.95;40.01465;939.7783;;;;
2020/09/16 13:23:44;;;;;;;2.2;1;;;;;;;29.93;36.20605;939.753;;;;
2020/09/16 13:26:09;;;;;;;1.6;1.1;;;;;;;29.86;36.31934;939.75;;;;
2020/09/16 13:28:43;;;;;;;1.4;1;;;;;;;29.87;36.63086;939.6919;;;;
2020/09/16 13:31:07;;;;;;;1.3;0.9;;;;;;;30.03;33.60156;939.7054;;;;
2020/09/16 13:33:32;;;;;;;6.3;1.4;;;;;;;30.1;33.05664;939.6794;;;;
2020/09/16 13:35:59;;;;;;;1.7;1;;;;;;;30.06;32.57715;939.7156;;;;
2020/09/16 13:38:24;;;;;;;2;1.2;;;;;;;30.16;34.14746;939.7149;;;;
2020/09/16 13:40:52;;;;;;;2;0.9;;;;;;;30.27;32.06738;939.6403;;;;
2020/09/16 13:43:17;;;;;;;1.2;0.8;;;;;;;30.42;34.27441;939.598;;;;
2020/09/16 13:45:42;;;;;;;1.5;1.1;;;;;;;30.43;35.61328;939.6763;;;;
2020/09/16 13:48:07;;;;;;;1.8;1.1;;;;;;;30.4;35.37207;939.65;;;;
2020/09/16 13:50:32;;;;;;;1.2;0.9;;;;;;;30.52;35.83594;939.6061;;;;
2020/09/16 13:52:57;;;;;;;1.6;1;;;;;;;30.62;36.48926;939.5759;;;;
2020/09/16 13:55:25;;;;;;;2.1;1;;;;;;;30.56;32.21875;939.63;;;;
2020/09/16 13:57:51;;;;;;;1.1;0.8;;;;;;;30.55;32.50488;939.6166;;;;
2020/09/16 14:00:30;;;;;;;1.4;0.7;;;;;;;30.69;32.53906;939.5662;;;;
2020/09/16 14:02:55;;;;;;;2.5;1;;;;;;;30.71;33.09082;939.4468;;;;
2020/09/16 14:05:21;;;;;;;1.3;0.9;;;;;;;30.73;34.21484;939.5125;;;;
2020/09/16 14:07:46;;;;;;;1.6;1.1;;;;;;;30.71;34.70313;939.512;;;;
2020/09/16 14:10:11;;;;;;;1.1;0.7;;;;;;;30.55;33.35352;939.5215;;;;
2020/09/16 14:12:36;;;;;;;1.3;1.1;;;;;;;30.54;34.21289;939.4891;;;;
2020/09/16 14:15:01;;;;;;;1.9;1.2;;;;;;;30.27;35.55371;939.4072;;;;
2020/09/16 14:17:27;;;;;;;1.7;1.1;;;;;;;30.01;36.95215;939.2737;;;;
2020/09/16 14:19:52;;;;;;;1.7;1.4;;;;;;;29.62;35.65723;939.2437;;;;
2020/09/16 14:22:18;;;;;;;2.1;1.1;;;;;;;29.75;33.98633;939.2497;;;;
2020/09/16 14:24:43;;;;;;;1.5;0.8;;;;;;;29.85;35.03125;939.3325;;;;
2020/09/16 14:27:08;;;;;;;2.1;1.1;;;;;;;29.34;34.97949;939.4037;;;;
2020/09/16 14:29:33;;;;;;;5.8;1.1;;;;;;;29.5;35.25488;939.4579;;;;
2020/09/16 14:32:01;;;;;;;2.3;1;;;;;;;29.63;34.91895;939.4338;;;;
2020/09/16 14:34:24;;;;;;;1.7;1.2;;;;;;;29.56;34.06641;939.3289;;;;
2020/09/16 14:36:49;;;;;;;1.3;0.7;;;;;;;29.25;35.13867;939.3792;;;;
2020/09/16 14:39:14;;;;;;;2.3;1;;;;;;;29.33;34.32324;939.397;;;;
2020/09/16 14:41:39;;;;;;;1.4;0.8;;;;;;;28.57;34.9082;939.3639;;;;
2020/09/16 14:44:04;;;;;;;2.4;1.1;;;;;;;28.72;34.47949;939.3794;;;;
2020/09/16 14:46:30;;;;;;;1.8;1.1;;;;;;;28.42;35.11035;939.448;;;;
2020/09/16 14:48:55;;;;;;;1.1;0.9;;;;;;;28.18;35.72168;939.4022;;;;
2020/09/16 14:51:20;;;;;;;1.7;1.2;;;;;;;27.84;36.81055;939.5374;;;;
2020/09/16 14:53:45;;;;;;;1;0.9;;;;;;;27.97;36.54785;939.5931;;;;
2020/09/16 14:56:11;;;;;;;1.3;0.8;;;;;;;27.91;36.0918;939.6038;;;;
2020/09/16 14:58:36;;;;;;;1.1;1;;;;;;;27.74;36.76758;939.5803;;;;
2020/09/16 15:01:01;;;;;;;2.2;1.1;;;;;;;27.7;36.82324;939.5508;;;;